Terminal Aerodrome Forecast
Issued by NWS Pendleton, OR

Home | Current Version | Previous Version | Text Only | Print | Product List | Glossary On
Versions: 1 2 3 4 5 6 7 8 9 10 11 12 13
350
FTUS46 KPDT 182320
TAFPDT
TAF
KPDT 182320Z 1900/1924 28008KT P6SM BKN120
     FM190400 17008KT P6SM SCT120
     FM191800 25010KT P6SM BKN080 OVC100
     FM192200 28010KT P6SM VCSH BKN060 OVC080=

USA.gov is the U.S. government's official web portal to all federal, state and local government web resources and services.